Archival Weather

South Haven Area Rgnl

South Haven, Michigan (KLWA)

Report from: Thursday, September 21, 2023 4:55 AM EDT
Current time: Sunday, July 14, 2024 6:45 AM EDT

Current weather – Weather history – Daily summaries
Weather forecast

Temperature16.7°C (62.1°F)
Dew point14.3°C (57.7°F)
Winds Calm
Visibility10 mi. (16.1 km)
Clouds Ceiling: Broken clouds 12,000 ft. (3,658 m)
Altimeter30.16 in.Hg (1021 mB)
Relative humidity86 %
Density altitude154 ft. (47 m)
Remarks Fully automated report
Automated weather observing station with precipitation discriminator
Flight conditions Visual Meteorological Conditions
Raw dataKLWA 210855Z AUTO 00000KT 10SM BKN120 17/14 A3016 RMK AO2 T01670143
An error has occurred. This application may no longer respond until reloaded. Reload 🗙